createdAt,value
2018-07-13T00:00:06.724Z,4.03
2018-07-13T00:02:35.405Z,4.07
2018-07-13T00:05:04.147Z,4.33
2018-07-13T00:07:32.830Z,4.70
2018-07-13T00:10:01.509Z,3.97
2018-07-13T00:12:30.199Z,4.80
2018-07-13T00:15:08.921Z,4.73
2018-07-13T00:17:37.683Z,4.20
2018-07-13T00:20:06.698Z,4.60
2018-07-13T00:22:35.499Z,5.20
2018-07-13T00:25:04.254Z,4.80
2018-07-13T00:27:32.961Z,4.77
2018-07-13T00:30:01.622Z,4.33
2018-07-13T00:32:30.347Z,5.03
2018-07-13T00:34:59.032Z,4.63
2018-07-13T00:37:27.649Z,4.57
2018-07-13T00:39:56.371Z,4.63
2018-07-13T00:42:25.032Z,4.23
2018-07-13T00:44:53.680Z,5.07
2018-07-13T00:47:27.412Z,4.37
2018-07-13T00:49:56.135Z,4.50
2018-07-13T00:52:24.814Z,4.40
2018-07-13T00:54:53.491Z,4.40
2018-07-13T00:57:22.458Z,4.80
2018-07-13T00:59:51.168Z,4.43
2018-07-13T01:02:19.919Z,5.00
2018-07-13T01:04:48.570Z,4.80
2018-07-13T01:07:17.470Z,4.50
2018-07-13T01:09:46.182Z,4.80
2018-07-13T01:12:14.923Z,4.70
2018-07-13T01:14:43.683Z,5.23
2018-07-13T01:17:12.408Z,4.40
2018-07-13T01:19:41.155Z,4.87
2018-07-13T01:22:09.922Z,4.70
2018-07-13T01:24:38.687Z,4.80
2018-07-13T01:27:07.629Z,4.73
2018-07-13T01:29:36.288Z,4.47
2018-07-13T01:32:04.967Z,4.80
2018-07-13T01:34:33.659Z,5.00
2018-07-13T01:37:07.622Z,4.37
2018-07-13T01:39:36.339Z,4.63
2018-07-13T01:42:05.024Z,4.73
2018-07-13T01:44:33.710Z,4.70
2018-07-13T01:47:02.607Z,4.60
2018-07-13T01:49:31.302Z,5.10
2018-07-13T01:51:59.982Z,5.00
2018-07-13T01:54:28.739Z,4.83
2018-07-13T01:56:57.411Z,4.87
2018-07-13T01:59:26.042Z,4.70
2018-07-13T02:01:54.714Z,4.73
2018-07-13T02:04:23.494Z,4.97
2018-07-13T02:06:52.122Z,5.07
2018-07-13T02:09:20.721Z,4.87
2018-07-13T02:11:49.350Z,4.87
2018-07-13T02:14:18.044Z,4.60
2018-07-13T02:16:46.772Z,4.90
2018-07-13T02:19:15.510Z,5.17
2018-07-13T02:21:44.236Z,5.30
2018-07-13T02:24:12.919Z,4.90
2018-07-13T02:26:41.903Z,5.30
2018-07-13T02:29:10.556Z,5.30
2018-07-13T02:31:39.301Z,5.07
2018-07-13T02:34:08.048Z,5.40
2018-07-13T02:36:36.975Z,5.20
2018-07-13T02:39:06.973Z,5.13
2018-07-13T02:41:35.551Z,5.17
2018-07-13T02:44:04.277Z,4.90
2018-07-13T02:46:33.001Z,5.10
2018-07-13T02:49:01.695Z,5.20
2018-07-13T02:51:30.544Z,5.30
2018-07-13T02:53:59.226Z,5.30
2018-07-13T02:56:33.196Z,5.10
2018-07-13T02:59:01.937Z,5.23
2018-07-13T03:01:30.655Z,5.47
2018-07-13T03:03:59.339Z,4.90
2018-07-13T03:06:28.249Z,4.83
2018-07-13T03:08:57.008Z,4.53
2018-07-13T03:11:25.614Z,5.33
2018-07-13T03:13:54.295Z,4.73
2018-07-13T03:16:23.254Z,5.43
2018-07-13T03:18:52.052Z,5.07
2018-07-13T03:21:20.781Z,4.87
2018-07-13T03:23:49.511Z,5.30
2018-07-13T03:26:18.183Z,5.10
2018-07-13T03:28:46.875Z,5.50
2018-07-13T03:31:15.625Z,5.73
2018-07-13T03:33:44.380Z,5.37
2018-07-13T03:36:13.044Z,5.73
2018-07-13T03:38:41.700Z,6.10
2018-07-13T03:41:10.712Z,5.20
2018-07-13T03:43:39.407Z,6.20
2018-07-13T03:46:09.767Z,5.40
2018-07-13T03:48:41.857Z,5.97
2018-07-13T03:51:10.643Z,5.03
2018-07-13T03:53:39.358Z,4.63
2018-07-13T03:56:13.327Z,4.90
2018-07-13T03:58:42.089Z,5.10
2018-07-13T04:01:10.885Z,5.80
2018-07-13T04:03:39.575Z,5.90
2018-07-13T04:06:08.266Z,5.37
2018-07-13T04:08:36.974Z,5.40
2018-07-13T04:11:05.651Z,5.07
2018-07-13T04:13:34.380Z,5.50
2018-07-13T04:16:03.386Z,5.40
2018-07-13T04:18:32.138Z,5.70
2018-07-13T04:21:00.846Z,5.60
2018-07-13T04:23:29.681Z,5.67
2018-07-13T04:25:58.765Z,5.57
2018-07-13T04:28:27.499Z,5.40
2018-07-13T04:30:56.241Z,5.37
2018-07-13T04:33:24.947Z,6.47
2018-07-13T04:35:53.836Z,6.07
2018-07-13T04:38:22.644Z,5.20
2018-07-13T04:40:51.417Z,5.03
2018-07-13T04:43:20.152Z,5.37
2018-07-13T04:45:49.016Z,6.03
2018-07-13T04:48:17.832Z,5.83
2018-07-13T04:50:46.833Z,5.70
2018-07-13T04:53:15.741Z,5.57
2018-07-13T04:55:44.563Z,6.30
2018-07-13T04:58:13.606Z,6.10
2018-07-13T05:00:42.348Z,6.13
2018-07-13T05:03:11.208Z,5.30
2018-07-13T05:05:40.256Z,4.87
2018-07-13T05:08:08.957Z,5.03
2018-07-13T05:10:37.691Z,5.30
2018-07-13T05:13:06.411Z,5.43
2018-07-13T05:15:35.207Z,6.00
2018-07-13T05:18:03.984Z,5.80
2018-07-13T05:20:32.707Z,6.40
2018-07-13T05:23:02.329Z,5.47
2018-07-13T05:25:31.087Z,5.60
2018-07-13T05:28:00.254Z,6.33
2018-07-13T05:30:29.026Z,5.47
2018-07-13T05:32:57.933Z,4.90
2018-07-13T05:35:26.781Z,5.87
2018-07-13T05:37:55.652Z,5.53
2018-07-13T05:40:24.442Z,6.00
2018-07-13T05:42:53.504Z,5.70
2018-07-13T05:45:22.373Z,5.40
2018-07-13T05:47:56.314Z,6.13
2018-07-13T05:50:25.087Z,5.40
2018-07-13T05:52:54.059Z,6.13
2018-07-13T05:55:23.047Z,5.90
2018-07-13T05:57:52.144Z,5.93
2018-07-13T06:00:21.013Z,6.03
2018-07-13T06:02:50.041Z,6.27
2018-07-13T06:05:18.910Z,5.60
2018-07-13T06:07:47.860Z,6.17
2018-07-13T06:10:17.005Z,5.80
2018-07-13T06:12:46.049Z,6.57
2018-07-13T06:15:15.390Z,6.57
2018-07-13T06:17:44.443Z,6.60
2018-07-13T06:20:13.675Z,6.87
2018-07-13T06:22:42.447Z,6.67
2018-07-13T06:25:11.575Z,6.37
2018-07-13T06:27:40.665Z,5.90
2018-07-13T06:30:09.353Z,6.63
2018-07-13T06:32:38.283Z,6.93
2018-07-13T06:35:07.131Z,6.47
2018-07-13T06:37:41.030Z,6.60
2018-07-13T06:40:09.958Z,6.30
2018-07-13T06:42:38.776Z,6.13
2018-07-13T06:45:07.515Z,6.53
2018-07-13T06:47:36.272Z,6.33
2018-07-13T06:50:05.074Z,5.17
2018-07-13T06:52:34.542Z,5.43
2018-07-13T06:55:03.456Z,5.27
2018-07-13T06:57:48.542Z,6.00
2018-07-13T07:01:06.457Z,5.97
2018-07-13T07:03:44.620Z,6.47
2018-07-13T07:06:17.200Z,6.80
2018-07-13T07:08:48.166Z,6.37
2018-07-13T07:11:17.502Z,6.60
2018-07-13T07:13:46.950Z,6.57
2018-07-13T07:16:15.930Z,5.80
2018-07-13T07:18:44.635Z,5.13
2018-07-13T07:21:13.327Z,5.00
2018-07-13T07:23:42.040Z,5.20
2018-07-13T07:26:11.019Z,4.43
2018-07-13T07:28:39.753Z,4.53
2018-07-13T07:31:08.490Z,4.60
2018-07-13T07:33:37.232Z,4.20
2018-07-13T07:36:05.983Z,3.90
2018-07-13T07:38:34.726Z,4.13
2018-07-13T07:41:03.468Z,3.87
2018-07-13T07:43:32.700Z,5.17
2018-07-13T07:46:01.426Z,5.03
2018-07-13T07:48:30.171Z,4.47
2018-07-13T07:50:58.956Z,4.27
2018-07-13T07:53:27.727Z,4.83
2018-07-13T07:55:56.822Z,4.03
2018-07-13T07:58:25.558Z,5.07
2018-07-13T08:00:54.330Z,5.00
2018-07-13T08:03:23.103Z,4.93
2018-07-13T08:05:52.181Z,4.50
2018-07-13T08:08:20.870Z,5.10
2018-07-13T08:10:49.612Z,5.27
2018-07-13T08:13:18.286Z,5.40
2018-07-13T08:15:47.075Z,4.90
2018-07-13T08:18:15.854Z,5.00
2018-07-13T08:20:48.388Z,5.20
2018-07-13T08:23:18.486Z,4.73
2018-07-13T08:25:47.725Z,5.47
2018-07-13T08:28:18.347Z,4.90
2018-07-13T08:30:56.225Z,5.33
2018-07-13T08:33:25.192Z,4.80
2018-07-13T08:36:03.279Z,4.40
2018-07-13T08:38:31.928Z,4.80
2018-07-13T08:41:00.834Z,4.50
2018-07-13T08:43:29.532Z,4.73
2018-07-13T08:46:07.854Z,4.33
2018-07-13T08:48:36.663Z,4.40
2018-07-13T08:51:05.376Z,4.63
2018-07-13T08:53:34.141Z,4.80
2018-07-13T08:56:02.982Z,4.10
2018-07-13T08:58:31.725Z,4.20
2018-07-13T09:01:00.691Z,4.13
2018-07-13T09:03:29.957Z,4.53
2018-07-13T09:05:59.645Z,4.30
2018-07-13T09:08:29.627Z,4.40
2018-07-13T09:10:58.512Z,4.30
2018-07-13T09:13:27.165Z,4.07
2018-07-13T09:15:56.126Z,4.30
2018-07-13T09:18:24.833Z,4.40
2018-07-13T09:20:53.565Z,4.07
2018-07-13T09:23:22.267Z,3.60
2018-07-13T09:26:01.609Z,4.40
2018-07-13T09:28:30.545Z,4.27
2018-07-13T09:30:59.421Z,4.33
2018-07-13T09:33:28.731Z,4.67
2018-07-13T09:35:57.787Z,4.50
2018-07-13T09:38:26.533Z,4.63
2018-07-13T09:40:55.397Z,4.20
2018-07-13T09:43:24.170Z,5.00
2018-07-13T09:46:06.637Z,4.50
2018-07-13T09:48:35.512Z,4.73
2018-07-13T09:51:04.530Z,4.60
2018-07-13T09:53:33.405Z,4.53
2018-07-13T09:56:02.248Z,5.20
2018-07-13T09:58:34.981Z,5.20
2018-07-13T10:01:09.532Z,4.10
2018-07-13T10:03:38.428Z,4.67
2018-07-13T10:06:07.917Z,5.33
2018-07-13T10:08:36.967Z,4.83
2018-07-13T10:11:06.963Z,4.50
2018-07-13T10:13:36.408Z,4.30
2018-07-13T10:16:14.825Z,4.20
2018-07-13T10:18:43.635Z,4.60
2018-07-13T10:21:12.407Z,4.37
2018-07-13T10:23:41.956Z,4.73
2018-07-13T10:26:18.837Z,4.10
2018-07-13T10:28:48.361Z,3.87
2018-07-13T10:31:17.216Z,4.50
2018-07-13T10:33:46.124Z,4.27
2018-07-13T10:36:17.135Z,4.35
2018-07-13T10:38:46.129Z,4.10
2018-07-13T10:41:16.018Z,4.37
2018-07-13T10:43:44.903Z,4.30
2018-07-13T10:46:15.562Z,4.30
2018-07-13T10:48:44.470Z,4.03
2018-07-13T10:51:13.195Z,4.22
2018-07-13T10:53:42.384Z,4.20
2018-07-13T10:56:11.876Z,3.83
2018-07-13T10:58:41.207Z,3.90
2018-07-13T11:01:10.956Z,3.90
2018-07-13T11:03:40.254Z,3.85
2018-07-13T11:06:09.276Z,4.20
2018-07-13T11:08:38.455Z,3.42
2018-07-13T11:11:07.147Z,3.30
2018-07-13T11:13:35.980Z,3.80
2018-07-13T11:16:04.880Z,3.72
2018-07-13T11:18:34.685Z,3.50
2018-07-13T11:21:03.500Z,3.95
2018-07-13T11:23:33.231Z,3.72
2018-07-13T11:26:02.115Z,3.70
2018-07-13T11:28:30.837Z,3.15
2018-07-13T11:30:59.972Z,3.40
2018-07-13T11:33:29.168Z,3.60
2018-07-13T11:36:07.217Z,3.95
2018-07-13T11:38:36.272Z,3.33
2018-07-13T11:41:05.057Z,3.02
2018-07-13T11:43:34.022Z,3.47
2018-07-13T11:46:02.866Z,3.25
2018-07-13T11:48:31.733Z,3.30
2018-07-13T11:51:00.637Z,3.20
2018-07-13T11:53:29.452Z,3.37
2018-07-13T11:56:03.359Z,3.50
2018-07-13T11:58:32.129Z,3.40
2018-07-13T12:01:02.019Z,3.55
2018-07-13T12:03:30.849Z,3.30
2018-07-13T12:05:59.838Z,4.00
2018-07-13T12:08:28.846Z,3.35
2018-07-13T12:10:57.511Z,3.20
2018-07-13T12:13:26.271Z,2.90
2018-07-13T12:15:55.108Z,3.70
2018-07-13T12:18:24.007Z,2.95
2018-07-13T12:20:52.777Z,3.47
2018-07-13T12:23:21.598Z,3.42
2018-07-13T12:25:50.331Z,3.50
2018-07-13T12:28:20.059Z,3.42
2018-07-13T12:30:49.338Z,3.05
2018-07-13T12:33:18.240Z,3.05
2018-07-13T12:35:47.566Z,3.35
2018-07-13T12:38:16.950Z,3.35
2018-07-13T12:40:45.712Z,3.17
2018-07-13T12:43:14.814Z,3.58
2018-07-13T12:45:43.870Z,3.52
2018-07-13T12:48:13.511Z,2.92
2018-07-13T12:50:54.493Z,3.12
2018-07-13T12:53:30.481Z,3.60
2018-07-13T12:56:04.692Z,3.30
2018-07-13T12:58:33.574Z,3.37
2018-07-13T13:01:02.504Z,3.35
2018-07-13T13:03:31.249Z,3.02
2018-07-13T13:06:00.141Z,3.17
2018-07-13T13:08:29.199Z,3.45
2018-07-13T13:10:58.765Z,3.17
2018-07-13T13:13:31.475Z,3.22
2018-07-13T13:16:01.782Z,3.10
2018-07-13T13:18:31.808Z,3.30
2018-07-13T13:21:00.528Z,3.22
2018-07-13T13:23:29.569Z,3.10
2018-07-13T13:25:58.682Z,3.47
2018-07-13T13:28:27.527Z,3.00
2018-07-13T13:30:56.505Z,3.08
2018-07-13T13:33:25.479Z,3.30
2018-07-13T13:35:54.236Z,3.40
2018-07-13T13:38:23.004Z,3.50
2018-07-13T13:40:52.034Z,3.42
2018-07-13T13:43:21.021Z,3.02
2018-07-13T13:45:49.820Z,3.40
2018-07-13T13:48:18.576Z,3.15
2018-07-13T13:50:47.317Z,3.42
2018-07-13T13:53:16.199Z,3.33
2018-07-13T13:55:45.059Z,3.25
2018-07-13T13:58:13.876Z,3.42
2018-07-13T14:00:42.675Z,3.55
2018-07-13T14:03:11.608Z,3.40
2018-07-13T14:05:40.351Z,3.30
2018-07-13T14:08:09.123Z,3.30
2018-07-13T14:10:37.917Z,3.50
2018-07-13T14:13:06.677Z,3.40
2018-07-13T14:15:35.391Z,3.90
2018-07-13T14:18:13.796Z,3.42
2018-07-13T14:20:42.592Z,3.58
2018-07-13T14:23:11.247Z,3.58
2018-07-13T14:25:39.997Z,3.30
2018-07-13T14:28:09.020Z,3.00
2018-07-13T14:30:37.724Z,3.52
2018-07-13T14:33:06.574Z,3.77
2018-07-13T14:35:35.311Z,3.87
2018-07-13T14:38:04.322Z,3.50
2018-07-13T14:40:33.003Z,4.08
2018-07-13T14:43:02.090Z,4.17
2018-07-13T14:45:31.338Z,3.77
2018-07-13T14:48:05.666Z,3.85
2018-07-13T14:50:34.598Z,3.60
2018-07-13T14:53:03.763Z,3.60
2018-07-13T14:55:32.785Z,3.62
2018-07-13T14:58:03.715Z,3.67
2018-07-13T15:00:33.495Z,3.80
2018-07-13T15:03:02.388Z,3.65
2018-07-13T15:05:32.296Z,3.87
2018-07-13T15:08:03.290Z,3.83
2018-07-13T15:10:32.130Z,3.42
2018-07-13T15:13:01.529Z,3.65
2018-07-13T15:15:30.751Z,3.52
2018-07-13T15:18:05.126Z,3.72
2018-07-13T15:20:34.198Z,3.52
2018-07-13T15:23:03.528Z,3.60
2018-07-13T15:25:32.335Z,3.47
2018-07-13T15:28:01.379Z,3.87
2018-07-13T15:30:31.087Z,3.67
2018-07-13T15:33:00.171Z,3.60
2018-07-13T15:35:28.929Z,3.87
2018-07-13T15:37:57.947Z,4.08
2018-07-13T15:40:26.817Z,3.58
2018-07-13T15:42:55.709Z,3.70
2018-07-13T15:45:24.617Z,3.67
2018-07-13T15:47:53.649Z,4.03
2018-07-13T15:50:22.412Z,3.92
2018-07-13T15:52:51.092Z,4.10
2018-07-13T15:55:19.846Z,4.03
2018-07-13T15:57:48.479Z,4.17
2018-07-13T16:00:17.225Z,4.53
2018-07-13T16:02:45.975Z,4.12
2018-07-13T16:05:14.769Z,4.08
2018-07-13T16:07:43.475Z,3.83
2018-07-13T16:10:12.167Z,4.08
2018-07-13T16:12:40.802Z,3.92
2018-07-13T16:15:09.491Z,4.28
2018-07-13T16:17:38.206Z,4.15
2018-07-13T16:20:06.920Z,4.15
2018-07-13T16:22:35.562Z,4.40
2018-07-13T16:25:04.268Z,4.30
2018-07-13T16:27:33.016Z,3.92
2018-07-13T16:30:01.713Z,4.53
2018-07-13T16:32:30.464Z,4.33
2018-07-13T16:34:59.159Z,4.60
2018-07-13T16:37:28.189Z,5.28
2018-07-13T16:39:56.861Z,4.83
2018-07-13T16:42:25.546Z,4.15
2018-07-13T16:44:54.225Z,5.30
2018-07-13T16:47:22.883Z,4.87
2018-07-13T16:49:51.534Z,4.70
2018-07-13T16:52:20.189Z,4.83
2018-07-13T16:54:48.857Z,4.50
2018-07-13T16:57:17.441Z,4.72
2018-07-13T16:59:46.212Z,4.75
2018-07-13T17:02:14.915Z,4.08
2018-07-13T17:04:43.550Z,4.37
2018-07-13T17:07:12.331Z,4.53
2018-07-13T17:09:41.025Z,4.78
2018-07-13T17:12:09.689Z,4.20
2018-07-13T17:14:38.374Z,4.42
2018-07-13T17:17:07.154Z,4.90
2018-07-13T17:19:35.822Z,4.70
2018-07-13T17:22:04.527Z,5.15
2018-07-13T17:24:33.230Z,4.62
2018-07-13T17:27:01.895Z,5.83
2018-07-13T17:29:30.670Z,5.47
2018-07-13T17:31:59.259Z,6.33
2018-07-13T17:34:28.011Z,5.05
2018-07-13T17:36:56.695Z,13.43
2018-07-13T17:39:25.339Z,5.03
2018-07-13T17:41:54.002Z,4.30
2018-07-13T17:44:22.691Z,4.65
2018-07-13T17:46:51.343Z,4.78
2018-07-13T17:49:20.072Z,5.03
2018-07-13T17:51:48.826Z,4.78
2018-07-13T17:54:17.516Z,4.90
2018-07-13T17:56:46.372Z,4.62
2018-07-13T17:59:15.045Z,5.37
2018-07-13T18:01:43.867Z,5.25
2018-07-13T18:04:12.540Z,5.17
2018-07-13T18:06:41.410Z,5.20
2018-07-13T18:09:10.118Z,5.20
2018-07-13T18:11:38.810Z,6.10
2018-07-13T18:14:07.523Z,5.50
2018-07-13T18:16:36.454Z,5.47
2018-07-13T18:19:05.142Z,4.93
2018-07-13T18:21:33.862Z,5.30
2018-07-13T18:24:02.660Z,5.20
2018-07-13T18:26:31.587Z,4.90
2018-07-13T18:29:00.237Z,6.03
2018-07-13T18:31:28.946Z,6.30
2018-07-13T18:33:57.616Z,6.30
2018-07-13T18:36:26.309Z,5.50
2018-07-13T18:38:55.035Z,6.20
2018-07-13T18:41:23.799Z,6.47
2018-07-13T18:43:52.509Z,7.00
2018-07-13T18:46:21.318Z,5.93
2018-07-13T18:48:49.983Z,5.83
2018-07-13T18:51:18.710Z,5.87
2018-07-13T18:53:47.396Z,5.70
2018-07-13T18:56:16.329Z,5.90
2018-07-13T18:58:45.064Z,5.83
2018-07-13T19:01:13.758Z,5.73
2018-07-13T19:03:42.460Z,6.03
2018-07-13T19:06:11.393Z,5.40
2018-07-13T19:08:40.232Z,5.30
2018-07-13T19:11:09.062Z,5.40
2018-07-13T19:13:37.691Z,5.50
2018-07-13T19:16:06.382Z,6.23
2018-07-13T19:18:35.078Z,5.37
2018-07-13T19:21:03.796Z,6.17
2018-07-13T19:23:32.490Z,6.50
2018-07-13T19:26:01.215Z,6.83
2018-07-13T19:28:29.890Z,6.33
2018-07-13T19:30:58.639Z,6.10
2018-07-13T19:33:27.308Z,6.07
2018-07-13T19:35:56.200Z,6.70
2018-07-13T19:38:24.922Z,6.50
2018-07-13T19:40:53.628Z,6.67
2018-07-13T19:43:22.407Z,6.77
2018-07-13T19:45:51.147Z,7.43
2018-07-13T19:48:19.928Z,6.53
2018-07-13T19:50:48.661Z,6.53
2018-07-13T19:53:17.401Z,6.80
2018-07-13T19:55:46.148Z,5.67
2018-07-13T19:58:15.159Z,6.50
2018-07-13T20:00:43.857Z,7.03
2018-07-13T20:03:12.579Z,6.53
2018-07-13T20:05:41.537Z,8.13
2018-07-13T20:08:10.275Z,7.00
2018-07-13T20:10:39.094Z,6.03
2018-07-13T20:13:07.804Z,6.40
2018-07-13T20:15:36.548Z,5.70
2018-07-13T20:18:05.247Z,5.50
2018-07-13T20:20:34.113Z,5.90
2018-07-13T20:23:02.841Z,6.50
2018-07-13T20:25:31.489Z,7.07
2018-07-13T20:28:00.251Z,8.17
2018-07-13T20:30:29.021Z,5.90
2018-07-13T20:32:57.714Z,6.27
2018-07-13T20:35:26.444Z,5.93
2018-07-13T20:37:55.215Z,5.90
2018-07-13T20:40:23.924Z,5.50
2018-07-13T20:42:52.658Z,5.77
2018-07-13T20:45:21.405Z,6.03
2018-07-13T20:47:55.138Z,5.57
2018-07-13T20:50:23.840Z,5.57
2018-07-13T20:52:52.519Z,6.00
2018-07-13T20:55:21.246Z,5.60
2018-07-13T20:57:49.937Z,6.47
2018-07-13T21:00:18.559Z,5.20
2018-07-13T21:02:47.288Z,4.93
2018-07-13T21:05:15.957Z,5.67
2018-07-13T21:07:44.937Z,5.67
2018-07-13T21:10:13.654Z,5.57
2018-07-13T21:12:42.327Z,5.43
2018-07-13T21:15:11.051Z,6.03
2018-07-13T21:17:39.989Z,6.20
2018-07-13T21:20:08.703Z,6.00
2018-07-13T21:22:37.374Z,5.30
2018-07-13T21:25:06.142Z,6.20
2018-07-13T21:27:35.179Z,4.83
2018-07-13T21:30:03.850Z,6.00
2018-07-13T21:32:32.620Z,5.60
2018-07-13T21:35:01.263Z,5.70
2018-07-13T21:37:29.933Z,6.40
2018-07-13T21:39:58.696Z,6.30
2018-07-13T21:42:27.347Z,6.70
2018-07-13T21:44:56.036Z,6.43
2018-07-13T21:47:24.677Z,6.50
2018-07-13T21:49:53.349Z,6.50
2018-07-13T21:52:22.130Z,6.10
2018-07-13T21:54:50.751Z,6.57
2018-07-13T21:57:19.667Z,6.70
2018-07-13T21:59:48.415Z,6.10
2018-07-13T22:02:17.088Z,6.40
2018-07-13T22:04:45.803Z,5.40
2018-07-13T22:07:14.631Z,5.40
2018-07-13T22:09:43.254Z,5.17
2018-07-13T22:12:11.938Z,5.90
2018-07-13T22:14:40.705Z,5.50
2018-07-13T22:17:09.376Z,5.40
2018-07-13T22:19:38.121Z,5.73
2018-07-13T22:22:06.913Z,5.53
2018-07-13T22:24:35.640Z,5.73
2018-07-13T22:27:04.367Z,6.27
2018-07-13T22:29:33.059Z,6.50
2018-07-13T22:32:01.750Z,6.47
2018-07-13T22:34:30.477Z,6.50
2018-07-13T22:36:59.178Z,6.33
2018-07-13T22:39:27.833Z,6.57
2018-07-13T22:41:56.547Z,6.70
2018-07-13T22:44:25.239Z,6.37
2018-07-13T22:46:54.183Z,5.77
2018-07-13T22:49:22.893Z,5.90
2018-07-13T22:51:51.702Z,6.10
2018-07-13T22:54:20.404Z,6.70
2018-07-13T22:56:49.235Z,6.23
2018-07-13T22:59:18.132Z,6.50
2018-07-13T23:01:46.853Z,6.10
2018-07-13T23:04:15.538Z,5.77
2018-07-13T23:06:44.574Z,6.43
2018-07-13T23:09:13.227Z,6.13
2018-07-13T23:11:41.939Z,6.50
2018-07-13T23:14:10.637Z,7.23
2018-07-13T23:16:39.410Z,7.30
2018-07-13T23:19:08.163Z,8.27
2018-07-13T23:21:36.939Z,7.87
2018-07-13T23:24:05.644Z,6.67
2018-07-13T23:26:34.335Z,6.77
2018-07-13T23:29:03.041Z,6.03
2018-07-13T23:31:31.741Z,6.97
2018-07-13T23:34:00.506Z,7.07
2018-07-13T23:36:29.457Z,8.07
2018-07-13T23:38:58.174Z,7.33
2018-07-13T23:41:27.032Z,7.50
2018-07-13T23:43:55.714Z,6.80
2018-07-13T23:46:24.571Z,6.70
2018-07-13T23:48:53.279Z,7.17
2018-07-13T23:51:22.001Z,6.77
2018-07-13T23:53:50.699Z,7.47
2018-07-13T23:56:19.560Z,6.37
2018-07-13T23:58:48.343Z,6.13
